createdAt,value
2022-10-26T00:01:18.865Z,11.80
2022-10-26T00:03:47.751Z,11.70
2022-10-26T00:06:17.585Z,11.70
2022-10-26T00:08:46.651Z,11.80
2022-10-26T00:11:15.352Z,11.90
2022-10-26T00:13:43.926Z,11.90
2022-10-26T00:16:15.928Z,11.90
2022-10-26T00:18:44.336Z,11.90
2022-10-26T00:21:12.793Z,11.90
2022-10-26T00:23:41.096Z,11.90
2022-10-26T00:26:22.727Z,11.90
2022-10-26T00:28:53.635Z,11.90
2022-10-26T00:31:25.562Z,11.90
2022-10-26T00:33:54.343Z,11.80
2022-10-26T00:36:22.756Z,11.80
2022-10-26T00:38:51.502Z,11.80
2022-10-26T00:41:22.511Z,11.80
2022-10-26T00:43:51.425Z,11.80
2022-10-26T00:46:23.846Z,11.80
2022-10-26T00:48:56.229Z,11.80
2022-10-26T00:51:30.350Z,11.80
2022-10-26T00:53:58.674Z,11.90
2022-10-26T00:56:27.345Z,11.90
2022-10-26T00:58:57.406Z,11.90
2022-10-26T01:01:27.016Z,11.90
2022-10-26T01:03:55.302Z,11.90
2022-10-26T01:06:23.792Z,11.90
2022-10-26T01:08:52.883Z,11.90
2022-10-26T01:11:21.401Z,11.90
2022-10-26T01:13:51.912Z,11.90
2022-10-26T01:16:42.779Z,11.90
2022-10-26T01:19:47.808Z,11.80
2022-10-26T01:22:21.640Z,11.80
2022-10-26T01:25:04.714Z,11.80
2022-10-26T01:27:36.675Z,11.80
2022-10-26T01:30:26.998Z,11.80
2022-10-26T01:33:14.204Z,11.80
2022-10-26T01:35:51.232Z,11.80
2022-10-26T01:38:27.312Z,11.80
2022-10-26T01:41:05.185Z,11.80
2022-10-26T01:43:40.139Z,11.80
2022-10-26T01:46:11.939Z,11.80
2022-10-26T01:48:42.346Z,11.90
2022-10-26T01:51:12.411Z,11.80
2022-10-26T01:53:46.893Z,11.80
2022-10-26T01:56:19.831Z,11.80
2022-10-26T01:59:14.742Z,11.80
2022-10-26T02:02:13.673Z,11.80
2022-10-26T02:04:51.019Z,11.80
2022-10-26T02:07:26.305Z,11.80
2022-10-26T02:10:01.061Z,11.80
2022-10-26T02:12:39.785Z,11.70
2022-10-26T02:15:11.204Z,11.70
2022-10-26T02:17:49.271Z,11.70
2022-10-26T02:20:23.064Z,11.70
2022-10-26T02:22:53.118Z,11.80
2022-10-26T02:25:24.999Z,11.80
2022-10-26T02:27:57.843Z,11.80
2022-10-26T02:30:26.292Z,11.80
2022-10-26T02:33:02.152Z,11.80
2022-10-26T02:35:35.254Z,11.80
2022-10-26T02:38:07.422Z,11.90
2022-10-26T02:40:36.963Z,11.90
2022-10-26T02:43:09.002Z,11.80
2022-10-26T02:45:49.444Z,11.80
2022-10-26T02:48:19.788Z,11.80
2022-10-26T02:50:55.433Z,11.80
2022-10-26T02:53:29.814Z,11.90
2022-10-26T02:56:02.418Z,11.80
2022-10-26T02:58:34.643Z,11.80
2022-10-26T03:01:03.033Z,11.80
2022-10-26T03:03:33.029Z,11.80
2022-10-26T03:06:01.258Z,11.90
2022-10-26T03:08:29.756Z,11.90
2022-10-26T03:10:58.102Z,11.90
2022-10-26T03:13:26.262Z,11.90
2022-10-26T03:15:57.255Z,11.90
2022-10-26T03:18:25.456Z,12.00
2022-10-26T03:20:56.473Z,12.00
2022-10-26T03:23:24.739Z,11.90
2022-10-26T03:25:52.860Z,12.00
2022-10-26T03:28:21.045Z,11.90
2022-10-26T03:30:49.358Z,12.00
2022-10-26T03:33:20.957Z,11.90
2022-10-26T03:35:57.780Z,12.00
2022-10-26T03:38:26.073Z,11.90
2022-10-26T03:40:54.350Z,11.90
2022-10-26T03:43:22.841Z,11.90
2022-10-26T03:45:51.289Z,11.90
2022-10-26T03:48:19.757Z,11.90
2022-10-26T03:50:49.258Z,11.90
2022-10-26T03:53:19.052Z,11.90
2022-10-26T03:55:47.526Z,11.90
2022-10-26T03:58:31.028Z,11.90
2022-10-26T04:01:01.477Z,11.90
2022-10-26T04:03:42.223Z,11.90
2022-10-26T04:06:10.549Z,11.90
2022-10-26T04:08:40.141Z,11.80
2022-10-26T04:11:08.458Z,11.80
2022-10-26T04:13:36.689Z,11.90
2022-10-26T04:16:05.196Z,11.90
2022-10-26T04:18:33.344Z,11.90
2022-10-26T04:21:03.152Z,11.90
2022-10-26T04:23:31.368Z,11.80
2022-10-26T04:26:00.926Z,11.80
2022-10-26T04:28:29.211Z,11.90
2022-10-26T04:30:57.318Z,11.90
2022-10-26T04:33:25.471Z,11.80
2022-10-26T04:35:53.665Z,11.80
2022-10-26T04:38:21.836Z,11.90
2022-10-26T04:40:52.351Z,11.90
2022-10-26T04:43:21.892Z,11.90
2022-10-26T04:45:50.109Z,11.80
2022-10-26T04:48:18.279Z,11.80
2022-10-26T04:50:47.773Z,11.80
2022-10-26T04:53:16.207Z,11.80
2022-10-26T04:55:44.500Z,11.80
2022-10-26T04:58:12.702Z,11.80
2022-10-26T05:00:42.250Z,11.80
2022-10-26T05:03:11.309Z,11.80
2022-10-26T05:05:39.450Z,11.80
2022-10-26T05:08:07.963Z,11.80
2022-10-26T05:10:37.018Z,11.80
2022-10-26T05:13:05.279Z,11.70
2022-10-26T05:15:33.500Z,11.70
2022-10-26T05:18:05.483Z,11.70
2022-10-26T05:20:35.189Z,11.70
2022-10-26T05:23:04.867Z,11.70
2022-10-26T05:25:36.397Z,11.70
2022-10-26T05:28:06.230Z,11.70
2022-10-26T05:30:35.745Z,11.70
2022-10-26T05:33:05.916Z,11.70
2022-10-26T05:35:34.612Z,11.70
2022-10-26T05:38:08.429Z,11.60
2022-10-26T05:40:36.660Z,11.70
2022-10-26T05:43:05.295Z,11.70
2022-10-26T05:45:33.519Z,11.70
2022-10-26T05:48:02.810Z,11.70
2022-10-26T05:50:32.779Z,11.70
2022-10-26T05:53:01.022Z,11.70
2022-10-26T05:55:30.202Z,11.70
2022-10-26T05:57:58.991Z,11.70
2022-10-26T06:00:29.713Z,11.70
2022-10-26T06:03:14.847Z,11.70
2022-10-26T06:05:53.373Z,11.70
2022-10-26T06:08:22.819Z,11.70
2022-10-26T06:10:51.896Z,11.80
2022-10-26T06:13:20.721Z,11.80
2022-10-26T06:16:00.840Z,11.80
2022-10-26T06:18:40.251Z,11.70
2022-10-26T06:21:26.683Z,11.80
2022-10-26T06:23:59.741Z,11.80
2022-10-26T06:26:38.005Z,11.80
2022-10-26T06:29:17.962Z,11.80
2022-10-26T06:31:47.920Z,11.90
2022-10-26T06:34:23.999Z,11.90
2022-10-26T06:39:23.435Z,11.90
2022-10-26T06:41:52.347Z,11.90
2022-10-26T06:44:24.081Z,11.90
2022-10-26T06:46:58.909Z,11.90
2022-10-26T06:49:32.617Z,11.90
2022-10-26T06:52:06.256Z,11.90
2022-10-26T06:54:48.641Z,12.00
2022-10-26T06:57:18.655Z,12.00
2022-10-26T06:59:50.308Z,12.00
2022-10-26T07:02:18.663Z,12.10
2022-10-26T07:04:47.392Z,12.10
2022-10-26T07:07:21.102Z,12.20
2022-10-26T07:09:49.758Z,12.20
2022-10-26T07:12:17.991Z,12.20
2022-10-26T07:14:46.370Z,12.20
2022-10-26T07:17:14.597Z,12.20
2022-10-26T07:19:44.675Z,12.20
2022-10-26T07:22:13.379Z,12.20
2022-10-26T07:24:42.947Z,12.30
2022-10-26T07:27:11.059Z,12.30
2022-10-26T07:29:39.772Z,12.40
2022-10-26T07:32:08.313Z,12.30
2022-10-26T07:34:36.421Z,12.30
2022-10-26T07:37:05.898Z,12.40
2022-10-26T07:39:34.052Z,12.40
2022-10-26T07:42:03.645Z,12.50
2022-10-26T07:44:31.781Z,12.50
2022-10-26T07:47:00.816Z,12.50
2022-10-26T07:49:29.244Z,12.50
2022-10-26T07:51:57.552Z,12.50
2022-10-26T07:54:25.687Z,12.50
2022-10-26T07:56:53.993Z,12.50
2022-10-26T07:59:23.867Z,12.50
2022-10-26T08:01:52.309Z,12.40
2022-10-26T08:04:20.503Z,12.50
2022-10-26T08:06:48.853Z,12.50
2022-10-26T08:09:17.095Z,12.40
2022-10-26T08:11:45.315Z,12.40
2022-10-26T08:14:13.523Z,12.40
2022-10-26T08:16:44.142Z,12.40
2022-10-26T08:19:12.278Z,12.40
2022-10-26T08:21:40.780Z,12.40
2022-10-26T08:24:10.297Z,12.40
2022-10-26T08:26:38.568Z,12.30
2022-10-26T08:29:06.858Z,12.30
2022-10-26T08:31:35.552Z,12.30
2022-10-26T08:34:05.200Z,12.30
2022-10-26T08:36:33.334Z,12.20
2022-10-26T08:39:01.519Z,12.20
2022-10-26T08:41:37.115Z,12.20
2022-10-26T08:44:15.004Z,12.20
2022-10-26T08:46:46.353Z,12.20
2022-10-26T08:49:24.365Z,12.20
2022-10-26T08:51:57.465Z,12.10
2022-10-26T08:54:38.188Z,12.00
2022-10-26T08:57:16.268Z,12.00
2022-10-26T08:59:52.214Z,12.00
2022-10-26T09:02:21.615Z,11.90
2022-10-26T09:04:51.278Z,11.80
2022-10-26T09:07:32.560Z,11.80
2022-10-26T09:10:11.935Z,11.90
2022-10-26T09:12:51.514Z,11.90
2022-10-26T09:15:29.926Z,11.90
2022-10-26T09:18:08.287Z,11.90
2022-10-26T09:20:54.078Z,11.90
2022-10-26T09:23:32.736Z,11.90
2022-10-26T09:26:02.586Z,11.90
2022-10-26T09:28:34.572Z,12.00
2022-10-26T09:31:04.558Z,11.90
2022-10-26T09:33:36.977Z,12.00
2022-10-26T09:36:13.164Z,12.00
2022-10-26T09:38:48.569Z,11.90
2022-10-26T09:41:27.125Z,11.90
2022-10-26T09:44:04.425Z,11.90
2022-10-26T09:46:39.366Z,11.90
2022-10-26T09:49:09.755Z,11.90
2022-10-26T09:51:42.430Z,11.90
2022-10-26T09:54:16.578Z,11.90
2022-10-26T09:56:47.401Z,12.00
2022-10-26T09:59:16.894Z,12.00
2022-10-26T10:01:45.078Z,12.10
2022-10-26T10:04:22.628Z,12.00
2022-10-26T10:06:53.504Z,12.00
2022-10-26T10:09:22.900Z,12.10
2022-10-26T10:11:56.611Z,12.10
2022-10-26T10:14:26.726Z,12.20
2022-10-26T10:16:56.773Z,12.30
2022-10-26T10:19:27.582Z,12.30
2022-10-26T10:22:01.385Z,12.30
2022-10-26T10:24:31.910Z,12.40
2022-10-26T10:27:05.349Z,12.40
2022-10-26T10:29:35.193Z,12.40
2022-10-26T10:32:05.085Z,12.40
2022-10-26T10:34:36.156Z,12.40
2022-10-26T10:37:05.943Z,12.40
2022-10-26T10:39:40.217Z,12.50
2022-10-26T10:42:17.229Z,12.60
2022-10-26T10:44:47.373Z,12.60
2022-10-26T10:47:24.101Z,12.70
2022-10-26T10:49:54.841Z,12.80
2022-10-26T10:52:30.699Z,12.90
2022-10-26T10:55:12.048Z,12.90
2022-10-26T10:57:52.902Z,13.00
2022-10-26T11:00:22.135Z,13.10
2022-10-26T11:03:16.897Z,13.20
2022-10-26T11:06:06.773Z,13.30
2022-10-26T11:08:43.408Z,13.50
2022-10-26T11:11:17.604Z,13.60
2022-10-26T11:13:51.556Z,13.60
2022-10-26T11:16:24.732Z,13.60
2022-10-26T11:18:58.959Z,13.50
2022-10-26T11:21:30.038Z,13.50
2022-10-26T11:24:13.357Z,13.50
2022-10-26T11:26:47.473Z,13.50
2022-10-26T11:29:24.702Z,13.50
2022-10-26T11:31:58.851Z,13.50
2022-10-26T11:34:40.525Z,13.50
2022-10-26T11:37:14.072Z,13.50
2022-10-26T11:39:47.558Z,13.50
2022-10-26T11:42:23.856Z,13.40
2022-10-26T11:44:56.795Z,13.40
2022-10-26T11:47:34.917Z,13.30
2022-10-26T11:50:07.626Z,13.30
2022-10-26T11:52:42.211Z,13.20
2022-10-26T11:55:12.670Z,13.20
2022-10-26T11:57:42.032Z,13.20
2022-10-26T12:00:17.308Z,13.30
2022-10-26T12:02:50.372Z,13.30
2022-10-26T12:05:22.005Z,13.40
2022-10-26T12:07:53.483Z,13.50
2022-10-26T12:10:32.879Z,13.50
2022-10-26T12:13:09.050Z,13.50
2022-10-26T12:16:02.462Z,13.50
2022-10-26T12:18:54.514Z,13.50
2022-10-26T12:21:25.218Z,13.40
2022-10-26T12:23:58.715Z,13.30
2022-10-26T12:26:41.850Z,13.30
2022-10-26T12:29:36.683Z,13.30
2022-10-26T12:32:06.919Z,13.30
2022-10-26T12:35:00.328Z,13.30
2022-10-26T12:37:36.751Z,13.20
2022-10-26T12:40:39.073Z,13.20
2022-10-26T12:43:36.708Z,13.20
2022-10-26T12:46:45.212Z,13.20
2022-10-26T12:50:00.933Z,13.20
2022-10-26T12:52:51.267Z,13.20
2022-10-26T12:55:48.926Z,13.20
2022-10-26T12:58:44.215Z,13.20
2022-10-26T13:01:45.896Z,13.20
2022-10-26T13:04:47.095Z,13.20
2022-10-26T13:07:21.579Z,13.20
2022-10-26T13:09:57.930Z,13.30
2022-10-26T13:12:29.070Z,13.30
2022-10-26T13:15:01.697Z,13.40
2022-10-26T13:17:32.512Z,13.40
2022-10-26T13:20:03.798Z,13.40
2022-10-26T13:22:33.036Z,13.40
2022-10-26T13:25:05.421Z,13.40
2022-10-26T13:27:45.183Z,13.40
2022-10-26T13:30:43.687Z,13.50
2022-10-26T13:33:22.571Z,13.50
2022-10-26T13:35:54.809Z,13.50
2022-10-26T13:38:26.855Z,13.50
2022-10-26T13:41:01.232Z,13.50
2022-10-26T13:43:29.818Z,13.60
2022-10-26T13:46:01.337Z,13.60
2022-10-26T13:48:38.864Z,13.50
2022-10-26T13:51:17.351Z,13.50
2022-10-26T13:53:52.536Z,13.50
2022-10-26T13:56:29.368Z,13.40
2022-10-26T13:59:03.060Z,13.40
2022-10-26T14:01:32.170Z,13.30
2022-10-26T14:04:00.458Z,13.20
2022-10-26T14:06:34.609Z,13.20
2022-10-26T14:09:06.048Z,13.10
2022-10-26T14:11:38.962Z,13.00
2022-10-26T14:14:07.147Z,13.00
2022-10-26T14:16:36.491Z,12.80
2022-10-26T14:19:04.983Z,12.70
2022-10-26T14:21:34.706Z,12.60
2022-10-26T14:24:07.675Z,12.60
2022-10-26T14:26:41.892Z,12.50
2022-10-26T14:29:18.509Z,12.40
2022-10-26T14:31:46.701Z,12.30
2022-10-26T14:34:15.090Z,12.20
2022-10-26T14:36:47.852Z,12.20
2022-10-26T14:39:25.051Z,12.10
2022-10-26T14:41:55.329Z,12.00
2022-10-26T14:44:25.487Z,12.00
2022-10-26T14:46:54.542Z,11.90
2022-10-26T14:49:25.856Z,11.90
2022-10-26T14:52:00.367Z,11.80
2022-10-26T14:54:30.067Z,11.80
2022-10-26T14:56:58.608Z,11.70
2022-10-26T14:59:28.699Z,11.70
2022-10-26T15:01:58.203Z,11.70
2022-10-26T15:04:36.714Z,11.60
2022-10-26T15:07:18.694Z,11.60
2022-10-26T15:09:48.512Z,11.60
2022-10-26T15:12:23.754Z,11.50
2022-10-26T15:14:53.106Z,11.50
2022-10-26T15:17:27.678Z,11.50
2022-10-26T15:19:57.883Z,11.40
2022-10-26T15:22:32.114Z,11.40
2022-10-26T15:25:03.259Z,11.40
2022-10-26T15:27:31.738Z,11.30
2022-10-26T15:30:20.136Z,11.30
2022-10-26T15:32:49.112Z,11.30
2022-10-26T15:35:29.482Z,11.20
2022-10-26T15:38:01.015Z,11.20
2022-10-26T15:40:31.123Z,11.10
2022-10-26T15:43:01.783Z,11.00
2022-10-26T15:45:33.048Z,10.90
2022-10-26T15:48:18.154Z,10.90
2022-10-26T15:50:46.319Z,10.80
2022-10-26T15:53:20.295Z,10.70
2022-10-26T15:55:56.055Z,10.60
2022-10-26T15:58:24.570Z,10.50
2022-10-26T16:00:52.821Z,10.50
2022-10-26T16:03:23.078Z,10.40
2022-10-26T16:05:56.379Z,10.30
2022-10-26T16:08:27.971Z,10.30
2022-10-26T16:10:56.418Z,10.30
2022-10-26T16:13:24.801Z,10.20
2022-10-26T16:15:52.935Z,10.20
2022-10-26T16:18:21.279Z,10.10
2022-10-26T16:20:49.617Z,10.10
2022-10-26T16:23:17.747Z,10.10
2022-10-26T16:25:48.094Z,10.00
2022-10-26T16:28:17.719Z,10.00
2022-10-26T16:30:46.153Z,9.90
2022-10-26T16:33:14.423Z,9.90
2022-10-26T16:35:42.664Z,9.90
2022-10-26T16:38:10.903Z,9.90
2022-10-26T16:40:42.597Z,9.80
2022-10-26T16:43:12.465Z,9.80
2022-10-26T16:45:42.330Z,9.70
2022-10-26T16:48:15.052Z,9.70
2022-10-26T16:50:43.965Z,9.70
2022-10-26T16:53:12.129Z,9.60
2022-10-26T16:55:40.390Z,9.70
2022-10-26T16:58:08.896Z,9.60
2022-10-26T17:00:39.127Z,9.60
2022-10-26T17:03:07.262Z,9.60
2022-10-26T17:05:35.516Z,9.60
2022-10-26T17:08:03.669Z,9.50
2022-10-26T17:10:31.893Z,9.50
2022-10-26T17:13:00.035Z,9.40
2022-10-26T17:15:29.091Z,9.50
2022-10-26T17:17:58.859Z,9.40
2022-10-26T17:20:27.137Z,9.40
2022-10-26T17:22:57.451Z,9.40
2022-10-26T17:25:25.693Z,9.40
2022-10-26T17:27:53.915Z,9.40
2022-10-26T17:30:22.099Z,9.30
2022-10-26T17:32:50.610Z,9.30
2022-10-26T17:35:20.457Z,9.30
2022-10-26T17:37:48.956Z,9.20
2022-10-26T17:40:17.549Z,9.20
2022-10-26T17:42:45.908Z,9.20
2022-10-26T17:45:14.075Z,9.10
2022-10-26T17:47:42.417Z,9.10
2022-10-26T17:50:10.975Z,9.10
2022-10-26T17:52:40.500Z,9.00
2022-10-26T17:55:09.142Z,9.00
2022-10-26T17:57:37.328Z,9.00
2022-10-26T18:00:06.373Z,8.90
2022-10-26T18:02:40.652Z,8.90
2022-10-26T18:05:10.181Z,8.80
2022-10-26T18:07:38.382Z,8.80
2022-10-26T18:10:32.801Z,8.70
2022-10-26T18:12:56.808Z,8.70
2022-10-26T18:15:25.086Z,8.60
2022-10-26T18:17:58.185Z,8.60
2022-10-26T18:20:28.787Z,8.60
2022-10-26T18:22:57.635Z,8.50
2022-10-26T18:25:27.704Z,8.50
2022-10-26T18:27:56.136Z,8.50
2022-10-26T18:30:24.876Z,8.50
2022-10-26T18:32:53.952Z,8.40
2022-10-26T18:35:22.670Z,8.40
2022-10-26T18:37:51.096Z,8.40
2022-10-26T18:40:19.540Z,8.30
2022-10-26T18:42:49.100Z,8.20
2022-10-26T18:45:17.381Z,8.20
2022-10-26T18:47:45.531Z,8.20
2022-10-26T18:50:13.698Z,8.20
2022-10-26T18:52:42.063Z,8.10
2022-10-26T18:55:11.134Z,8.10
2022-10-26T18:57:39.298Z,8.00
2022-10-26T19:00:10.670Z,8.00
2022-10-26T19:02:38.918Z,7.90
2022-10-26T19:05:08.176Z,7.80
2022-10-26T19:07:38.978Z,7.90
2022-10-26T19:10:08.278Z,7.80
2022-10-26T19:12:36.512Z,7.80
2022-10-26T19:15:05.205Z,7.80
2022-10-26T19:17:34.780Z,7.80
2022-10-26T19:20:02.962Z,7.80
2022-10-26T19:22:31.206Z,7.80
2022-10-26T19:24:59.437Z,7.80
2022-10-26T19:27:27.605Z,7.90
2022-10-26T19:29:55.728Z,7.80
2022-10-26T19:32:23.955Z,7.90
2022-10-26T19:34:53.632Z,8.00
2022-10-26T19:37:23.683Z,8.00
2022-10-26T19:39:54.208Z,8.10
2022-10-26T19:42:24.822Z,8.00
2022-10-26T19:44:53.021Z,8.10
2022-10-26T19:47:21.233Z,8.10
2022-10-26T19:49:49.355Z,8.20
2022-10-26T19:54:47.047Z,8.20
2022-10-26T19:57:15.379Z,8.20
2022-10-26T19:59:44.461Z,8.20
2022-10-26T20:02:13.014Z,8.20
2022-10-26T20:04:42.295Z,8.20
2022-10-26T20:07:11.029Z,8.10
2022-10-26T20:09:40.597Z,8.10
2022-10-26T20:12:12.660Z,8.10
2022-10-26T20:14:41.333Z,8.10
2022-10-26T20:17:09.643Z,8.10
2022-10-26T20:19:37.894Z,8.10
2022-10-26T20:22:06.046Z,8.00
2022-10-26T20:24:34.297Z,7.90
2022-10-26T20:27:03.917Z,7.90
2022-10-26T20:29:32.187Z,7.80
2022-10-26T20:32:00.401Z,7.80
2022-10-26T20:36:56.780Z,7.60
2022-10-26T20:39:25.469Z,7.70
2022-10-26T20:41:54.203Z,7.60
2022-10-26T20:44:28.209Z,7.60
2022-10-26T20:46:56.854Z,7.60
2022-10-26T20:49:26.734Z,7.50
2022-10-26T20:52:20.317Z,7.50
2022-10-26T20:54:55.194Z,7.50
2022-10-26T20:57:30.879Z,7.50
2022-10-26T21:00:05.585Z,7.40
2022-10-26T21:02:33.869Z,7.40
2022-10-26T21:05:02.062Z,7.50
2022-10-26T21:07:30.269Z,7.40
2022-10-26T21:09:58.480Z,7.30
2022-10-26T21:12:26.713Z,7.30
2022-10-26T21:14:54.861Z,7.40
2022-10-26T21:17:24.409Z,7.30
2022-10-26T21:19:52.570Z,7.30
2022-10-26T21:22:20.719Z,7.30
2022-10-26T21:24:48.926Z,7.30
2022-10-26T21:27:17.078Z,7.30
2022-10-26T21:29:45.236Z,7.30
2022-10-26T21:32:13.366Z,7.30
2022-10-26T21:34:42.859Z,7.20
2022-10-26T21:37:11.010Z,7.20
2022-10-26T21:39:39.186Z,7.10
2022-10-26T21:42:07.366Z,7.10
2022-10-26T21:44:42.527Z,7.10
2022-10-26T21:47:11.012Z,7.10
2022-10-26T21:52:09.386Z,7.00
2022-10-26T21:54:37.549Z,6.90
2022-10-26T21:57:05.858Z,6.80
2022-10-26T21:59:33.991Z,6.90
2022-10-26T22:02:02.294Z,6.90
2022-10-26T22:04:30.543Z,6.80
2022-10-26T22:06:58.659Z,6.80
2022-10-26T22:09:28.220Z,6.70
2022-10-26T22:11:56.358Z,6.70
2022-10-26T22:14:24.624Z,6.70
2022-10-26T22:16:52.799Z,6.70
2022-10-26T22:19:20.915Z,6.70
2022-10-26T22:21:49.210Z,6.60
2022-10-26T22:24:17.580Z,6.70
2022-10-26T22:26:47.270Z,6.60
2022-10-26T22:29:15.404Z,6.60
2022-10-26T22:31:43.594Z,6.60
2022-10-26T22:34:16.406Z,6.60
2022-10-26T22:36:45.092Z,6.60
2022-10-26T22:39:13.220Z,6.60
2022-10-26T22:41:41.413Z,6.60
2022-10-26T22:44:11.021Z,6.60
2022-10-26T22:46:39.268Z,6.60
2022-10-26T22:49:07.462Z,6.60
2022-10-26T22:51:36.481Z,6.60
2022-10-26T22:54:06.458Z,6.60
2022-10-26T22:56:36.582Z,6.50
2022-10-26T22:59:05.308Z,6.50
2022-10-26T23:01:38.446Z,6.50
2022-10-26T23:04:06.819Z,6.50
2022-10-26T23:06:35.372Z,6.50
2022-10-26T23:09:03.547Z,6.40
2022-10-26T23:11:32.819Z,6.50
2022-10-26T23:14:03.228Z,6.40
2022-10-26T23:16:32.325Z,6.40
2022-10-26T23:19:01.929Z,6.30
2022-10-26T23:21:30.346Z,6.40
2022-10-26T23:23:58.921Z,6.30
2022-10-26T23:26:27.160Z,6.40
2022-10-26T23:28:56.202Z,6.40
2022-10-26T23:31:26.754Z,6.40
2022-10-26T23:33:56.714Z,6.30
2022-10-26T23:36:26.636Z,6.30
2022-10-26T23:38:54.773Z,6.30
2022-10-26T23:41:23.005Z,6.50
2022-10-26T23:43:51.188Z,6.40
2022-10-26T23:46:19.378Z,6.40
2022-10-26T23:48:47.586Z,6.40
2022-10-26T23:51:15.765Z,6.40
2022-10-26T23:53:45.265Z,6.40
2022-10-26T23:56:13.452Z,6.40
2022-10-26T23:58:41.769Z,6.40
